KFTK/FTK METAR and TAF weather

Enter ICAO airport designator
Station Type Date Time Source
KFTK METAR 2020/04/06 09:56 UTC NOAA

KFTK 060956Z AUTO 00000KT 10SM CLR 09/09 A3010 RMK AO2 SLP194 T00880088 $


Station Type Date Time Source
KFTK Decoded METAR 2020/04/06 09:56 UTC NOAA

Fort Knox, KY, United States (KFTK) 37-54N 085-58W 230M
Apr 06, 2020 - 05:56 AM EDT / 2020.04.06 0956 UTC
Wind: Calm:0
Visibility: 10 mile(s):0
Sky conditions: clear
Temperature: 47.8 F (8.8 C)
Dew Point: 47.8 F (8.8 C)
Relative Humidity: 100%
Pressure (altimeter): 30.1 in. Hg (1019 hPa)
ob: KFTK 060956Z AUTO 00000KT 10SM CLR 09/09 A3010 RMK AO2 SLP194 T00880088
cycle: 10

Station Type Date Time Source
KFTK TAF 2020/04/06 09:05 UTC NOAA

TAF KFTK 060900Z 0609/0715 VRB06KT 9000 BR FEW018 QNH3006INS
BECMG 0611/0612 VRB06KT 8000 BR FEW011 QNH3010INS
BECMG 0617/0618 26006KT 9999 NSW SCT030 BKN060 QNH3000INS
BECMG 0702/0703 VRB06KT 9999 FEW030 QNH2991INS
BECMG 0714/0715 25012G18KT 9999 FEW025 510033 QNH2990INS TX21/0620Z TN10/0611Z

Example: see airport list